createdAt,value
2018-11-11T00:02:20.160Z,6.53
2018-11-11T00:04:50.050Z,6.51
2018-11-11T00:07:19.937Z,6.52
2018-11-11T00:09:49.691Z,6.48
2018-11-11T00:12:19.455Z,6.49
2018-11-11T00:14:49.336Z,6.48
2018-11-11T00:17:19.123Z,6.47
2018-11-11T00:19:48.995Z,6.50
2018-11-11T00:22:18.820Z,6.43
2018-11-11T00:24:48.574Z,6.42
2018-11-11T00:27:18.478Z,6.45
2018-11-11T00:29:48.299Z,6.47
2018-11-11T00:32:18.147Z,6.44
2018-11-11T00:34:47.938Z,6.46
2018-11-11T00:37:17.753Z,6.40
2018-11-11T00:39:47.613Z,6.39
2018-11-11T00:42:17.487Z,6.34
2018-11-11T00:44:47.314Z,6.36
2018-11-11T00:47:17.131Z,6.34
2018-11-11T00:49:46.973Z,5.71
2018-11-11T00:52:16.757Z,6.27
2018-11-11T00:54:46.563Z,6.27
2018-11-11T00:57:16.388Z,6.20
2018-11-11T00:59:46.312Z,6.17
2018-11-11T01:02:16.252Z,6.14
2018-11-11T01:04:46.143Z,5.98
2018-11-11T01:07:15.983Z,5.98
2018-11-11T01:09:45.917Z,5.99
2018-11-11T01:12:15.846Z,5.97
2018-11-11T01:14:45.751Z,6.00
2018-11-11T01:17:15.656Z,6.02
2018-11-11T01:19:45.562Z,6.06
2018-11-11T01:22:15.323Z,6.09
2018-11-11T01:24:45.110Z,6.22
2018-11-11T01:27:15.036Z,6.13
2018-11-11T01:29:44.859Z,6.12
2018-11-11T01:32:14.803Z,6.17
2018-11-11T01:34:44.707Z,6.23
2018-11-11T01:37:14.572Z,6.23
2018-11-11T01:39:44.593Z,6.16
2018-11-11T01:42:14.474Z,6.13
2018-11-11T01:44:44.327Z,6.11
2018-11-11T01:47:14.244Z,6.13
2018-11-11T01:49:44.097Z,6.11
2018-11-11T01:52:14.006Z,6.08
2018-11-11T01:54:43.845Z,6.10
2018-11-11T01:57:13.743Z,6.12
2018-11-11T01:59:43.550Z,6.10
2018-11-11T02:02:13.430Z,6.07
2018-11-11T02:04:43.495Z,6.02
2018-11-11T02:07:13.416Z,6.01
2018-11-11T02:09:43.337Z,6.00
2018-11-11T02:12:13.030Z,6.01
2018-11-11T02:14:42.876Z,6.02
2018-11-11T02:17:12.762Z,5.94
2018-11-11T02:19:42.616Z,6.01
2018-11-11T02:22:12.434Z,5.95
2018-11-11T02:24:42.274Z,5.88
2018-11-11T02:27:12.083Z,5.88
2018-11-11T02:29:42.043Z,5.87
2018-11-11T02:32:11.830Z,5.85
2018-11-11T02:34:41.640Z,5.87
2018-11-11T02:37:11.438Z,5.87
2018-11-11T02:39:41.317Z,5.87
2018-11-11T02:42:11.092Z,5.88
2018-11-11T02:44:40.970Z,5.19
2018-11-11T02:47:10.820Z,5.90
2018-11-11T02:49:40.706Z,5.85
2018-11-11T02:52:10.542Z,5.84
2018-11-11T02:54:40.368Z,5.77
2018-11-11T02:57:10.213Z,5.70
2018-11-11T02:59:39.966Z,5.65
2018-11-11T03:02:09.811Z,5.64
2018-11-11T03:04:39.682Z,5.64
2018-11-11T03:07:09.571Z,5.64
2018-11-11T03:09:39.266Z,5.64
2018-11-11T03:12:09.080Z,5.62
2018-11-11T03:14:38.885Z,5.67
2018-11-11T03:17:08.682Z,5.71
2018-11-11T03:19:38.681Z,5.73
2018-11-11T03:22:08.508Z,5.74
2018-11-11T03:24:38.304Z,5.69
2018-11-11T03:27:08.075Z,5.69
2018-11-11T03:29:37.860Z,5.73
2018-11-11T03:32:07.608Z,5.72
2018-11-11T03:34:37.405Z,5.73
2018-11-11T03:37:07.631Z,5.71
2018-11-11T03:39:37.428Z,5.62
2018-11-11T03:42:07.180Z,5.67
2018-11-11T03:44:36.933Z,5.65
2018-11-11T03:47:07.169Z,5.68
2018-11-11T03:49:36.924Z,5.68
2018-11-11T03:52:06.896Z,5.74
2018-11-11T03:54:37.027Z,5.64
2018-11-11T03:57:06.907Z,5.07
2018-11-11T03:59:36.675Z,5.66
2018-11-11T04:02:06.493Z,5.63
2018-11-11T04:04:36.485Z,5.59
2018-11-11T04:07:06.289Z,5.63
2018-11-11T04:09:36.209Z,5.68
2018-11-11T04:12:06.064Z,5.65
2018-11-11T04:14:35.938Z,5.65
2018-11-11T04:17:05.887Z,5.63
2018-11-11T04:19:35.672Z,5.64
2018-11-11T04:22:09.893Z,5.62
2018-11-11T04:24:39.764Z,5.46
2018-11-11T04:27:09.644Z,5.49
2018-11-11T04:29:39.562Z,5.48
2018-11-11T04:32:09.793Z,5.53
2018-11-11T04:34:39.590Z,5.53
2018-11-11T04:37:09.969Z,5.52
2018-11-11T04:39:40.349Z,5.51
2018-11-11T04:42:10.070Z,5.50
2018-11-11T04:44:39.959Z,5.48
2018-11-11T04:47:09.736Z,5.51
2018-11-11T04:49:39.603Z,5.53
2018-11-11T04:52:09.488Z,5.45
2018-11-11T04:54:39.335Z,5.31
2018-11-11T04:57:09.235Z,5.24
2018-11-11T04:59:39.154Z,5.22
2018-11-11T05:02:09.019Z,5.23
2018-11-11T05:04:38.972Z,5.23
2018-11-11T05:07:09.277Z,5.24
2018-11-11T05:09:39.186Z,5.28
2018-11-11T05:12:08.933Z,5.25
2018-11-11T05:14:38.766Z,5.29
2018-11-11T05:17:08.628Z,5.27
2018-11-11T05:19:38.460Z,5.36
2018-11-11T05:22:08.544Z,5.23
2018-11-11T05:24:38.420Z,5.15
2018-11-11T05:27:08.342Z,5.13
2018-11-11T05:29:38.249Z,5.17
2018-11-11T05:32:08.068Z,5.19
2018-11-11T05:34:38.016Z,5.21
2018-11-11T05:37:07.946Z,5.19
2018-11-11T05:39:37.843Z,5.18
2018-11-11T05:42:07.875Z,5.20
2018-11-11T05:44:37.784Z,5.20
2018-11-11T05:47:07.842Z,5.25
2018-11-11T05:49:37.639Z,5.29
2018-11-11T05:52:07.522Z,5.31
2018-11-11T05:54:37.366Z,5.37
2018-11-11T05:57:07.252Z,5.40
2018-11-11T05:59:37.133Z,5.43
2018-11-11T06:02:07.029Z,5.49
2018-11-11T06:04:36.956Z,5.51
2018-11-11T06:07:07.038Z,5.71
2018-11-11T06:09:36.911Z,5.82
2018-11-11T06:12:07.010Z,5.75
2018-11-11T06:14:36.915Z,5.72
2018-11-11T06:17:06.855Z,5.80
2018-11-11T06:19:36.657Z,5.93
2018-11-11T06:22:06.541Z,6.10
2018-11-11T06:24:36.393Z,6.28
2018-11-11T06:27:06.730Z,6.74
2018-11-11T06:29:36.558Z,6.92
2018-11-11T06:32:06.988Z,7.24
2018-11-11T06:34:37.034Z,7.81
2018-11-11T06:37:06.970Z,8.13
2018-11-11T06:39:36.872Z,8.40
2018-11-11T06:42:06.824Z,8.58
2018-11-11T06:44:36.647Z,8.76
2018-11-11T06:47:06.506Z,8.96
2018-11-11T06:49:36.348Z,9.05
2018-11-11T06:52:06.261Z,9.04
2018-11-11T06:54:36.150Z,9.04
2018-11-11T06:57:05.931Z,8.85
2018-11-11T06:59:35.730Z,8.72
2018-11-11T07:02:06.007Z,8.65
2018-11-11T07:04:35.879Z,8.61
2018-11-11T07:07:05.814Z,8.71
2018-11-11T07:09:35.676Z,8.84
2018-11-11T07:12:05.760Z,8.96
2018-11-11T07:14:35.680Z,9.04
2018-11-11T07:17:05.887Z,9.03
2018-11-11T07:19:35.566Z,9.08
2018-11-11T07:22:05.590Z,9.13
2018-11-11T07:24:35.412Z,9.17
2018-11-11T07:27:05.273Z,9.26
2018-11-11T07:29:35.114Z,9.23
2018-11-11T07:32:05.043Z,9.18
2018-11-11T07:34:34.874Z,9.22
2018-11-11T07:37:04.703Z,9.34
2018-11-11T07:39:34.629Z,9.43
2018-11-11T07:42:04.424Z,9.43
2018-11-11T07:44:34.303Z,9.45
2018-11-11T07:47:04.153Z,9.69
2018-11-11T07:49:33.990Z,9.90
2018-11-11T07:52:03.838Z,10.13
2018-11-11T07:54:33.672Z,10.41
2018-11-11T07:57:03.556Z,10.68
2018-11-11T07:59:33.503Z,10.97
2018-11-11T08:02:03.476Z,11.28
2018-11-11T08:04:33.486Z,11.55
2018-11-11T08:07:03.369Z,11.80
2018-11-11T08:09:33.251Z,12.08
2018-11-11T08:12:04.338Z,12.37
2018-11-11T08:14:34.130Z,12.62
2018-11-11T08:17:04.072Z,12.83
2018-11-11T08:19:33.960Z,13.12
2018-11-11T08:22:03.797Z,13.34
2018-11-11T08:24:33.654Z,13.61
2018-11-11T08:27:03.415Z,13.69
2018-11-11T08:29:33.362Z,13.61
2018-11-11T08:32:03.293Z,13.42
2018-11-11T08:34:42.460Z,13.42
2018-11-11T08:37:12.719Z,13.55
2018-11-11T08:39:42.462Z,13.83
2018-11-11T08:42:13.827Z,14.01
2018-11-11T08:44:44.273Z,14.29
2018-11-11T08:47:16.647Z,14.52
2018-11-11T08:49:47.448Z,14.70
2018-11-11T08:52:17.098Z,14.77
2018-11-11T08:54:48.263Z,14.58
2018-11-11T08:57:19.302Z,14.56
2018-11-11T08:59:50.996Z,14.62
2018-11-11T09:02:21.918Z,14.74
2018-11-11T09:04:53.202Z,14.69
2018-11-11T09:07:24.729Z,14.75
2018-11-11T09:09:55.336Z,14.78
2018-11-11T09:12:27.295Z,14.83
2018-11-11T09:14:58.217Z,14.90
2018-11-11T09:17:28.820Z,15.02
2018-11-11T09:19:58.849Z,15.14
2018-11-11T09:22:28.583Z,15.25
2018-11-11T09:24:59.262Z,15.36
2018-11-11T09:27:30.562Z,15.37
2018-11-11T09:30:01.333Z,15.39
2018-11-11T09:32:31.600Z,15.32
2018-11-11T09:35:01.947Z,15.41
2018-11-11T09:37:32.317Z,15.47
2018-11-11T09:40:02.253Z,15.53
2018-11-11T09:42:32.172Z,15.47
2018-11-11T09:45:01.960Z,15.56
2018-11-11T09:47:31.844Z,15.76
2018-11-11T09:50:01.642Z,15.96
2018-11-11T09:52:31.477Z,15.90
2018-11-11T09:55:01.229Z,15.96
2018-11-11T09:57:31.170Z,16.04
2018-11-11T10:00:00.943Z,15.44
2018-11-11T10:02:30.914Z,16.07
2018-11-11T10:05:05.357Z,15.97
2018-11-11T10:09:45.095Z,16.10
2018-11-11T10:12:34.137Z,16.15
2018-11-11T10:16:13.953Z,16.25
2018-11-11T10:18:49.030Z,16.32
2018-11-11T10:21:27.371Z,16.34
2018-11-11T10:24:04.913Z,16.37
2018-11-11T10:26:41.285Z,16.27
2018-11-11T10:29:18.390Z,15.96
2018-11-11T10:31:53.276Z,15.89
2018-11-11T10:34:27.472Z,15.86
2018-11-11T10:37:03.161Z,15.89
2018-11-11T10:39:37.219Z,15.85
2018-11-11T10:42:13.078Z,15.86
2018-11-11T10:44:52.956Z,15.86
2018-11-11T10:47:26.916Z,15.87
2018-11-11T10:49:59.024Z,15.91
2018-11-11T10:52:28.972Z,15.96
2018-11-11T10:54:58.788Z,15.98
2018-11-11T10:57:28.588Z,15.97
2018-11-11T10:59:58.502Z,15.95
2018-11-11T11:02:32.916Z,15.95
2018-11-11T11:05:07.722Z,15.98
2018-11-11T11:07:37.631Z,16.01
2018-11-11T11:10:07.855Z,16.08
2018-11-11T11:12:37.815Z,16.12
2018-11-11T11:15:09.339Z,16.17
2018-11-11T11:17:39.256Z,16.18
2018-11-11T11:20:09.288Z,16.11
2018-11-11T11:22:39.256Z,16.11
2018-11-11T11:25:10.803Z,16.08
2018-11-11T11:27:41.517Z,16.08
2018-11-11T11:30:13.252Z,16.12
2018-11-11T11:32:43.197Z,16.11
2018-11-11T11:35:13.035Z,16.14
2018-11-11T11:37:42.692Z,16.13
2018-11-11T11:40:12.483Z,16.13
2018-11-11T11:42:42.333Z,16.11
2018-11-11T11:45:12.761Z,16.12
2018-11-11T11:47:42.949Z,16.25
2018-11-11T11:50:13.669Z,16.35
2018-11-11T11:52:43.882Z,16.33
2018-11-11T11:55:13.871Z,16.24
2018-11-11T11:57:43.830Z,16.19
2018-11-11T12:00:14.312Z,16.16
2018-11-11T12:02:44.111Z,16.32
2018-11-11T12:05:13.865Z,16.61
2018-11-11T12:07:43.616Z,16.62
2018-11-11T12:10:13.462Z,16.80
2018-11-11T12:12:43.287Z,16.85
2018-11-11T12:15:13.106Z,16.84
2018-11-11T12:17:43.101Z,16.87
2018-11-11T12:20:13.060Z,16.83
2018-11-11T12:22:42.948Z,16.76
2018-11-11T12:25:12.960Z,16.74
2018-11-11T12:27:42.754Z,16.75
2018-11-11T12:30:12.616Z,16.69
2018-11-11T12:32:42.549Z,16.62
2018-11-11T12:35:12.409Z,16.56
2018-11-11T12:37:42.250Z,16.58
2018-11-11T12:40:12.811Z,16.58
2018-11-11T12:42:43.597Z,16.57
2018-11-11T12:45:13.955Z,16.59
2018-11-11T12:47:43.863Z,16.62
2018-11-11T12:50:14.256Z,16.63
2018-11-11T12:52:44.213Z,16.60
2018-11-11T12:55:14.122Z,16.74
2018-11-11T12:57:44.033Z,16.79
2018-11-11T13:00:15.036Z,16.73
2018-11-11T13:02:44.913Z,16.81
2018-11-11T13:05:14.742Z,16.80
2018-11-11T13:07:44.498Z,16.69
2018-11-11T13:10:14.707Z,16.82
2018-11-11T13:12:44.577Z,16.79
2018-11-11T13:15:14.818Z,16.70
2018-11-11T13:17:44.745Z,16.60
2018-11-11T13:20:16.219Z,16.55
2018-11-11T13:22:46.176Z,16.50
2018-11-11T13:25:16.100Z,16.47
2018-11-11T13:27:45.967Z,16.46
2018-11-11T13:30:16.258Z,16.45
2018-11-11T13:32:46.252Z,16.44
2018-11-11T13:35:16.914Z,16.45
2018-11-11T13:37:46.916Z,16.45
2018-11-11T13:40:18.082Z,16.43
2018-11-11T13:42:47.963Z,16.46
2018-11-11T13:45:22.115Z,16.44
2018-11-11T13:47:52.314Z,16.44
2018-11-11T13:50:23.610Z,16.45
2018-11-11T13:52:53.476Z,16.44
2018-11-11T13:55:23.453Z,16.40
2018-11-11T13:57:53.143Z,16.39
2018-11-11T14:00:24.203Z,16.37
2018-11-11T14:02:53.974Z,16.35
2018-11-11T14:05:23.811Z,16.33
2018-11-11T14:07:53.651Z,16.30
2018-11-11T14:10:23.555Z,16.29
2018-11-11T14:12:53.257Z,16.26
2018-11-11T14:15:25.015Z,16.24
2018-11-11T14:17:55.708Z,16.19
2018-11-11T14:20:26.358Z,16.18
2018-11-11T14:22:56.943Z,16.16
2018-11-11T14:25:29.698Z,16.16
2018-11-11T14:27:59.686Z,16.18
2018-11-11T14:30:29.599Z,15.84
2018-11-11T14:32:59.925Z,16.25
2018-11-11T14:35:29.750Z,16.19
2018-11-11T14:37:59.534Z,16.05
2018-11-11T14:40:30.305Z,15.96
2018-11-11T14:43:00.107Z,15.90
2018-11-11T14:45:29.934Z,15.88
2018-11-11T14:47:59.795Z,15.84
2018-11-11T14:50:29.623Z,15.79
2018-11-11T14:52:59.532Z,15.71
2018-11-11T14:55:30.203Z,15.66
2018-11-11T14:58:00.869Z,15.73
2018-11-11T15:00:34.820Z,15.64
2018-11-11T15:03:12.496Z,15.46
2018-11-11T15:05:42.342Z,15.39
2018-11-11T15:08:12.315Z,15.31
2018-11-11T15:10:42.125Z,15.15
2018-11-11T15:13:13.063Z,14.53
2018-11-11T15:15:42.831Z,14.94
2018-11-11T15:18:12.657Z,14.86
2018-11-11T15:20:42.637Z,14.73
2018-11-11T15:23:12.360Z,14.64
2018-11-11T15:25:42.162Z,13.73
2018-11-11T15:28:12.077Z,14.62
2018-11-11T15:30:42.209Z,14.70
2018-11-11T15:33:11.864Z,14.64
2018-11-11T15:35:41.806Z,14.60
2018-11-11T15:38:11.714Z,14.42
2018-11-11T15:40:41.587Z,14.21
2018-11-11T15:43:11.585Z,14.10
2018-11-11T15:45:41.410Z,14.03
2018-11-11T15:48:11.358Z,13.97
2018-11-11T15:50:41.232Z,13.88
2018-11-11T15:53:11.161Z,13.77
2018-11-11T15:55:41.335Z,13.69
2018-11-11T15:58:11.194Z,13.61
2018-11-11T16:00:42.744Z,13.54
2018-11-11T16:03:12.833Z,13.47
2018-11-11T16:05:42.591Z,13.42
2018-11-11T16:08:12.513Z,13.51
2018-11-11T16:10:42.386Z,13.46
2018-11-11T16:13:12.228Z,13.41
2018-11-11T16:15:42.645Z,13.30
2018-11-11T16:18:13.604Z,13.21
2018-11-11T16:20:43.563Z,13.12
2018-11-11T16:23:13.418Z,13.02
2018-11-11T16:25:43.237Z,12.93
2018-11-11T16:28:13.000Z,12.91
2018-11-11T16:30:42.980Z,12.83
2018-11-11T16:33:12.881Z,12.76
2018-11-11T16:35:42.767Z,12.71
2018-11-11T16:38:12.660Z,12.67
2018-11-11T16:40:42.601Z,12.66
2018-11-11T16:43:12.499Z,12.62
2018-11-11T16:45:42.349Z,13.13
2018-11-11T16:48:12.203Z,13.49
2018-11-11T16:50:42.095Z,13.58
2018-11-11T16:53:12.071Z,13.55
2018-11-11T16:55:41.922Z,13.64
2018-11-11T16:58:11.875Z,13.63
2018-11-11T17:00:41.944Z,13.70
2018-11-11T17:03:11.934Z,13.56
2018-11-11T17:05:41.867Z,13.38
2018-11-11T17:08:11.796Z,13.41
2018-11-11T17:10:41.759Z,13.36
2018-11-11T17:13:13.044Z,13.20
2018-11-11T17:15:44.056Z,13.03
2018-11-11T17:18:13.875Z,12.98
2018-11-11T17:20:43.883Z,12.94
2018-11-11T17:23:13.791Z,13.17
2018-11-11T17:25:43.785Z,13.26
2018-11-11T17:28:13.734Z,13.28
2018-11-11T17:30:44.664Z,13.22
2018-11-11T17:33:14.595Z,13.11
2018-11-11T17:35:44.650Z,13.09
2018-11-11T17:38:14.656Z,12.88
2018-11-11T17:40:44.571Z,12.68
2018-11-11T17:43:14.457Z,12.51
2018-11-11T17:45:44.383Z,12.41
2018-11-11T17:48:14.466Z,12.52
2018-11-11T17:50:44.480Z,12.61
2018-11-11T17:53:14.487Z,11.54
2018-11-11T17:55:45.102Z,11.56
2018-11-11T17:58:14.935Z,12.73
2018-11-11T18:00:45.938Z,12.81
2018-11-11T18:03:15.936Z,12.64
2018-11-11T18:05:45.861Z,12.39
2018-11-11T18:08:15.659Z,12.20
2018-11-11T18:10:45.878Z,12.05
2018-11-11T18:13:15.852Z,11.93
2018-11-11T18:15:46.916Z,11.84
2018-11-11T18:18:16.905Z,11.76
2018-11-11T18:20:46.821Z,11.67
2018-11-11T18:23:16.746Z,11.61
2018-11-11T18:25:46.728Z,11.57
2018-11-11T18:28:17.101Z,11.54
2018-11-11T18:30:47.132Z,11.51
2018-11-11T18:33:17.126Z,11.46
2018-11-11T18:35:47.110Z,11.40
2018-11-11T18:38:17.013Z,11.33
2018-11-11T18:40:47.655Z,11.29
2018-11-11T18:43:17.663Z,10.86
2018-11-11T18:45:47.888Z,11.24
2018-11-11T18:48:18.049Z,11.35
2018-11-11T18:50:48.247Z,11.46
2018-11-11T18:53:18.477Z,11.58
2018-11-11T18:55:48.611Z,11.68
2018-11-11T18:58:18.775Z,10.52
2018-11-11T19:00:49.102Z,11.68
2018-11-11T19:03:19.315Z,11.58
2018-11-11T19:05:49.423Z,11.53
2018-11-11T19:08:19.492Z,11.30
2018-11-11T19:10:49.781Z,11.30
2018-11-11T19:13:19.883Z,11.35
2018-11-11T19:15:50.184Z,11.27
2018-11-11T19:18:20.358Z,11.14
2018-11-11T19:20:51.122Z,11.01
2018-11-11T19:23:21.565Z,11.08
2018-11-11T19:25:51.936Z,10.99
2018-11-11T19:28:22.274Z,10.77
2018-11-11T19:30:54.020Z,10.66
2018-11-11T19:33:24.635Z,10.57
2018-11-11T19:35:55.827Z,10.44
2018-11-11T19:38:26.156Z,10.37
2018-11-11T19:40:56.569Z,10.29
2018-11-11T19:43:27.876Z,10.21
2018-11-11T19:45:58.547Z,10.11
2018-11-11T19:48:28.828Z,10.05
2018-11-11T19:50:59.738Z,10.02
2018-11-11T19:53:30.064Z,9.99
2018-11-11T19:56:00.634Z,9.93
2018-11-11T19:58:30.983Z,9.90
2018-11-11T20:01:01.242Z,9.85
2018-11-11T20:03:31.643Z,9.81
2018-11-11T20:06:01.991Z,10.03
2018-11-11T20:08:32.188Z,10.18
2018-11-11T20:11:04.723Z,10.24
2018-11-11T20:13:37.581Z,10.24
2018-11-11T20:16:07.805Z,10.29
2018-11-11T20:18:38.136Z,10.18
2018-11-11T20:21:08.448Z,10.01
2018-11-11T20:23:38.724Z,10.03
2018-11-11T20:26:09.365Z,9.92
2018-11-11T20:28:39.677Z,9.74
2018-11-11T20:31:11.079Z,9.59
2018-11-11T20:33:41.456Z,9.67
2018-11-11T20:36:11.878Z,9.84
2018-11-11T20:38:42.083Z,9.83
2018-11-11T20:41:12.381Z,9.80
2018-11-11T20:43:42.475Z,9.73
2018-11-11T20:46:12.752Z,9.72
2018-11-11T20:48:43.031Z,9.76
2018-11-11T20:51:13.282Z,9.84
2018-11-11T20:53:43.461Z,9.79
2018-11-11T20:56:13.792Z,9.79
2018-11-11T20:58:43.659Z,9.83
2018-11-11T21:01:13.810Z,9.88
2018-11-11T21:03:44.914Z,9.93
2018-11-11T21:06:15.008Z,9.76
2018-11-11T21:08:45.171Z,9.60
2018-11-11T21:11:15.243Z,9.69
2018-11-11T21:13:45.263Z,9.65
2018-11-11T21:16:15.068Z,9.51
2018-11-11T21:18:44.930Z,9.43
2018-11-11T21:21:14.862Z,9.40
2018-11-11T21:23:45.118Z,9.37
2018-11-11T21:26:14.936Z,9.75
2018-11-11T21:28:44.851Z,9.97
2018-11-11T21:31:14.667Z,9.79
2018-11-11T21:33:44.602Z,9.67
2018-11-11T21:36:15.625Z,9.59
2018-11-11T21:38:45.472Z,9.51
2018-11-11T21:41:15.476Z,9.52
2018-11-11T21:43:45.319Z,9.42
2018-11-11T21:46:15.174Z,9.34
2018-11-11T21:48:45.016Z,9.25
2018-11-11T21:51:14.843Z,9.18
2018-11-11T21:53:44.719Z,9.13
2018-11-11T21:56:14.509Z,9.07
2018-11-11T21:58:44.385Z,8.89
2018-11-11T22:01:14.255Z,8.83
2018-11-11T22:03:44.280Z,8.83
2018-11-11T22:06:14.203Z,8.84
2018-11-11T22:08:44.108Z,8.86
2018-11-11T22:11:13.915Z,8.84
2018-11-11T22:13:43.770Z,8.82
2018-11-11T22:16:13.579Z,8.80
2018-11-11T22:18:43.448Z,8.76
2018-11-11T22:21:13.279Z,8.75
2018-11-11T22:23:43.090Z,8.75
2018-11-11T22:26:12.955Z,8.72
2018-11-11T22:28:42.830Z,8.67
2018-11-11T22:31:12.671Z,8.81
2018-11-11T22:33:42.467Z,8.99
2018-11-11T22:36:12.367Z,9.02
2018-11-11T22:38:42.246Z,6.82
2018-11-11T22:41:12.110Z,9.12
2018-11-11T22:43:41.921Z,8.99
2018-11-11T22:46:11.787Z,8.90
2018-11-11T22:48:41.824Z,8.84
2018-11-11T22:51:11.649Z,8.78
2018-11-11T22:53:41.649Z,8.75
2018-11-11T22:56:11.531Z,8.70
2018-11-11T22:58:41.494Z,8.64
2018-11-11T23:01:16.762Z,8.04
2018-11-11T23:03:46.407Z,8.61
2018-11-11T23:06:16.329Z,8.53
2018-11-11T23:08:46.192Z,8.45
2018-11-11T23:11:16.019Z,8.43
2018-11-11T23:13:45.739Z,8.44
2018-11-11T23:16:15.609Z,8.44
2018-11-11T23:18:45.416Z,8.40
2018-11-11T23:21:15.275Z,8.47
2018-11-11T23:23:45.108Z,8.45
2018-11-11T23:26:14.987Z,8.38
2018-11-11T23:28:45.390Z,8.26
2018-11-11T23:31:15.427Z,8.20
2018-11-11T23:33:45.431Z,8.11
2018-11-11T23:36:15.669Z,8.11
2018-11-11T23:38:45.448Z,8.04
2018-11-11T23:41:15.431Z,7.94
2018-11-11T23:43:45.242Z,7.87
2018-11-11T23:46:16.059Z,7.81
2018-11-11T23:48:46.045Z,7.78
2018-11-11T23:51:16.514Z,7.84
2018-11-11T23:53:46.472Z,7.99
2018-11-11T23:56:16.134Z,7.94
2018-11-11T23:58:46.468Z,7.86
